Time;durP1;ratioP1;P1;durP2;ratioP2;P2;SDS_P1;SDS_P2;PMS_P1;PMS_P2;Temp;Humidity;BMP_temperature;BMP_pressure;BME280_temperature;BME280_humidity;BME280_pressure;Samples;Min_cycle;Max_cycle;Signal;HPM_P1;HPM_P2
2024/03/01 00:01:28;;;;;;;10.63;3.03;;;16.10;99.90;;;;;;5047494;28;20034;-74
2024/03/01 00:03:54;;;;;;;6.60;3.07;;;16.10;99.90;;;;;;5028982;28;20047;-73
2024/03/01 00:06:20;;;;;;;4.80;3.10;;;16.10;99.90;;;;;;5017581;28;20026;-72
2024/03/01 00:08:45;;;;;;;4.33;2.67;;;16.10;99.90;;;;;;5031974;28;20033;-74
2024/03/01 00:11:11;;;;;;;4.17;2.87;;;16.10;99.90;;;;;;5033494;28;20029;-73
2024/03/01 00:13:37;;;;;;;4.17;2.57;;;16.10;99.90;;;;;;5032565;28;20026;-73
2024/03/01 00:16:03;;;;;;;4.20;2.83;;;16.10;99.90;;;;;;5033184;28;20497;-73
2024/03/01 00:18:28;;;;;;;5.63;2.93;;;16.10;99.90;;;;;;5031300;28;20048;-72
2024/03/01 00:20:54;;;;;;;4.30;2.97;;;16.10;99.90;;;;;;5033222;28;20044;-73
2024/03/01 00:23:20;;;;;;;3.37;2.20;;;16.10;99.90;;;;;;5032737;28;20780;-72
2024/03/01 00:25:45;;;;;;;7.03;2.70;;;16.00;99.90;;;;;;5063202;28;20030;-72
2024/03/01 00:28:12;;;;;;;4.93;2.70;;;16.00;99.90;;;;;;5033226;28;20021;-73
2024/03/01 00:30:37;;;;;;;3.78;2.50;;;16.10;99.90;;;;;;5033241;28;20021;-73
2024/03/01 00:33:03;;;;;;;4.40;2.67;;;16.00;99.90;;;;;;5064980;28;20521;-74
2024/03/01 00:35:30;;;;;;;5.38;2.38;;;16.00;99.90;;;;;;5032526;28;20042;-74
2024/03/01 00:37:56;;;;;;;3.35;2.30;;;16.00;99.90;;;;;;5031380;28;20030;-74
2024/03/01 00:40:22;;;;;;;4.65;2.38;;;16.00;99.90;;;;;;5032912;28;20494;-74
2024/03/01 00:42:47;;;;;;;4.88;2.53;;;16.00;99.90;;;;;;5032516;28;20029;-73
2024/03/01 00:45:13;;;;;;;4.20;2.53;;;16.00;99.90;;;;;;5032445;28;20240;-72
2024/03/01 00:47:47;;;;;;;4.73;2.60;;;16.00;99.90;;;;;;5028828;28;20051;-73
2024/03/01 00:50:13;;;;;;;3.22;2.25;;;16.00;99.90;;;;;;5031110;28;20022;-73
2024/03/01 00:52:38;;;;;;;3.23;2.13;;;16.00;99.90;;;;;;5030622;28;20095;-74
2024/03/01 00:55:05;;;;;;;5.47;2.43;;;16.00;99.90;;;;;;5032312;28;20294;-74
2024/03/01 00:57:32;;;;;;;4.75;2.53;;;15.90;99.90;;;;;;5057948;28;20148;-75
2024/03/01 00:59:59;;;;;;;3.58;2.40;;;15.90;99.90;;;;;;5057747;28;20033;-73
2024/03/01 01:02:25;;;;;;;3.83;2.28;;;16.00;99.90;;;;;;5032332;28;20054;-74
2024/03/01 01:04:51;;;;;;;5.13;2.30;;;15.90;99.90;;;;;;5031578;28;20074;-72
2024/03/01 01:07:17;;;;;;;4.20;2.90;;;15.90;99.90;;;;;;5064195;28;20029;-73
2024/03/01 01:09:43;;;;;;;4.90;2.67;;;15.90;99.90;;;;;;5030407;28;20495;-73
2024/03/01 01:12:09;;;;;;;3.55;2.20;;;15.90;99.90;;;;;;5059257;28;20021;-73
2024/03/01 01:14:35;;;;;;;4.13;2.30;;;15.90;99.90;;;;;;5030335;28;20115;-73
2024/03/01 01:17:01;;;;;;;3.47;2.10;;;15.90;99.90;;;;;;5024723;28;20483;-73
2024/03/01 01:19:27;;;;;;;3.10;1.95;;;15.90;99.90;;;;;;5029431;28;20040;-75
2024/03/01 01:21:52;;;;;;;3.47;2.00;;;15.90;99.90;;;;;;5031684;28;20386;-74
2024/03/01 01:24:18;;;;;;;5.33;2.60;;;15.90;99.90;;;;;;5032234;28;20041;-73
2024/03/01 01:26:44;;;;;;;4.03;2.23;;;15.80;99.90;;;;;;5063911;28;20029;-73
2024/03/01 01:29:10;;;;;;;3.37;2.17;;;15.90;99.90;;;;;;5031836;28;20364;-74
2024/03/01 01:31:35;;;;;;;2.60;1.90;;;15.90;99.90;;;;;;5030540;28;20112;-73
2024/03/01 01:34:01;;;;;;;4.67;2.33;;;15.90;99.90;;;;;;5032007;28;20030;-74
2024/03/01 01:36:27;;;;;;;3.27;2.00;;;15.90;99.90;;;;;;5031651;28;20490;-75
2024/03/01 01:38:56;;;;;;;6.53;2.33;;;15.90;99.90;;;;;;5031514;28;20080;-73
2024/03/01 01:41:21;;;;;;;3.30;2.28;;;15.80;99.90;;;;;;5029330;28;20072;-73
2024/03/01 01:43:47;;;;;;;4.03;2.10;;;15.80;99.90;;;;;;5030023;28;20065;-73
2024/03/01 01:46:15;;;;;;;2.83;1.95;;;15.80;99.90;;;;;;5057747;28;20551;-74
2024/03/01 01:48:45;;;;;;;4.28;2.40;;;15.80;99.90;;;;;;5030975;28;20040;-74
2024/03/01 01:51:14;;;;;;;2.88;1.92;;;15.80;99.90;;;;;;5030069;28;20459;-72
2024/03/01 01:53:40;;;;;;;2.95;1.88;;;15.80;99.90;;;;;;5021327;28;20061;-73
2024/03/01 01:56:08;;;;;;;2.78;1.83;;;15.80;99.90;;;;;;5031023;28;20075;-74
2024/03/01 01:58:36;;;;;;;3.47;2.15;;;15.80;99.90;;;;;;5030701;28;20087;-74
2024/03/01 02:01:09;;;;;;;2.35;1.80;;;15.80;99.90;;;;;;5031306;28;20022;-73
2024/03/01 02:03:38;;;;;;;3.20;1.90;;;15.80;99.90;;;;;;5056598;28;20053;-73
2024/03/01 02:06:05;;;;;;;2.03;1.70;;;15.80;99.90;;;;;;5024471;28;20051;-73
2024/03/01 02:08:35;;;;;;;2.58;1.83;;;15.80;99.90;;;;;;5030413;28;20033;-75
2024/03/01 02:11:02;;;;;;;3.25;2.08;;;15.80;99.90;;;;;;5029459;28;20095;-73
2024/03/01 02:13:28;;;;;;;2.60;1.55;;;15.80;99.90;;;;;;5029312;28;20593;-74
2024/03/01 02:15:54;;;;;;;4.00;2.00;;;15.80;99.90;;;;;;5030696;28;20036;-73
2024/03/01 02:18:21;;;;;;;2.17;1.65;;;15.80;99.90;;;;;;5030717;28;20112;-73
2024/03/01 02:21:09;;;;;;;2.92;1.80;;;15.70;99.90;;;;;;5030463;28;20096;-73
2024/03/01 02:23:35;;;;;;;2.30;1.60;;;15.70;99.90;;;;;;5026025;28;20115;-74
2024/03/01 02:26:01;;;;;;;2.42;1.77;;;15.70;99.90;;;;;;5021885;28;20032;-73
2024/03/01 02:28:27;;;;;;;4.00;1.83;;;15.70;99.90;;;;;;5029707;28;20410;-73
2024/03/01 02:30:53;;;;;;;2.92;2.00;;;15.70;99.90;;;;;;5027552;28;20486;-73
2024/03/01 02:33:21;;;;;;;2.70;1.90;;;15.70;99.90;;;;;;5029078;28;20120;-72
2024/03/01 02:35:47;;;;;;;2.97;1.65;;;15.70;99.90;;;;;;5058423;28;20030;-74
2024/03/01 02:38:13;;;;;;;2.83;1.90;;;15.80;99.90;;;;;;5030362;28;20036;-74
2024/03/01 02:40:40;;;;;;;2.85;1.90;;;15.70;99.90;;;;;;5028738;28;20128;-73
2024/03/01 02:43:09;;;;;;;3.15;1.95;;;15.70;99.90;;;;;;5030891;28;20116;-73
2024/03/01 02:45:35;;;;;;;2.72;2.03;;;15.70;99.90;;;;;;5028829;28;20124;-73
2024/03/01 02:48:01;;;;;;;3.33;1.80;;;15.70;99.90;;;;;;5030339;28;20044;-74
2024/03/01 02:50:27;;;;;;;3.27;2.20;;;15.70;99.90;;;;;;5029905;28;20030;-72
2024/03/01 02:52:52;;;;;;;2.03;1.47;;;15.70;99.90;;;;;;5029737;28;20115;-73
2024/03/01 02:55:21;;;;;;;3.10;2.03;;;15.70;99.90;;;;;;5030845;28;20061;-72
2024/03/01 02:57:51;;;;;;;2.08;1.50;;;15.70;99.90;;;;;;5030085;28;20030;-74
2024/03/01 03:00:18;;;;;;;2.92;1.77;;;15.70;99.90;;;;;;5030520;28;20029;-75
2024/03/01 03:02:44;;;;;;;2.72;1.90;;;15.70;99.90;;;;;;5029776;28;20098;-74
2024/03/01 03:05:10;;;;;;;1.87;1.53;;;15.70;99.90;;;;;;5061559;28;20442;-73
2024/03/01 03:07:37;;;;;;;3.03;1.70;;;15.70;99.90;;;;;;5029113;28;20394;-74
2024/03/01 03:10:03;;;;;;;2.20;1.52;;;15.70;99.90;;;;;;5028415;28;20034;-73
2024/03/01 03:12:29;;;;;;;2.70;1.80;;;15.70;99.90;;;;;;5027677;28;20038;-72
2024/03/01 03:14:55;;;;;;;1.80;1.27;;;15.70;99.90;;;;;;5028526;28;20474;-73
2024/03/01 03:17:22;;;;;;;6.20;1.70;;;15.70;99.90;;;;;;5028438;28;20065;-73
2024/03/01 03:19:49;;;;;;;3.33;1.88;;;15.70;99.90;;;;;;5030042;28;20467;-73
2024/03/01 03:22:15;;;;;;;2.17;1.63;;;15.70;99.90;;;;;;5028500;28;20029;-73
2024/03/01 03:24:41;;;;;;;3.80;1.67;;;15.70;99.90;;;;;;5028535;28;20030;-73
2024/03/01 03:27:07;;;;;;;2.63;1.77;;;15.70;99.90;;;;;;5028488;28;20483;-73
2024/03/01 03:29:34;;;;;;;3.05;1.60;;;15.70;99.90;;;;;;5029400;28;20108;-75
2024/03/01 03:32:00;;;;;;;3.22;1.70;;;15.70;99.90;;;;;;5030112;28;20099;-73
2024/03/01 03:34:25;;;;;;;5.27;1.80;;;15.70;99.90;;;;;;5029404;28;20060;-74
2024/03/01 03:36:51;;;;;;;2.93;1.80;;;15.70;99.90;;;;;;5029448;28;20410;-74
2024/03/01 03:39:17;;;;;;;2.47;1.63;;;15.70;99.90;;;;;;5028438;28;20040;-72
2024/03/01 03:41:43;;;;;;;2.17;1.50;;;15.70;99.90;;;;;;5028042;28;20525;-74
2024/03/01 03:44:09;;;;;;;2.47;1.50;;;15.70;99.90;;;;;;5033562;28;20044;-73
2024/03/01 03:46:35;;;;;;;1.88;1.30;;;15.70;99.90;;;;;;5033613;28;20041;-73
2024/03/01 03:49:02;;;;;;;2.17;1.63;;;15.70;99.90;;;;;;5032487;28;20034;-72
2024/03/01 03:51:29;;;;;;;2.15;1.38;;;15.70;99.90;;;;;;5033091;28;20467;-74
2024/03/01 03:53:56;;;;;;;1.98;1.45;;;15.70;99.90;;;;;;5033379;28;20021;-74
2024/03/01 03:56:22;;;;;;;;;;;15.70;99.90;;;;;;5033920;28;20052;-72
2024/03/01 03:58:49;;;;;;;1.45;1.08;;;15.70;99.90;;;;;;5033660;28;19952;-73
2024/03/01 04:01:14;;;;;;;;;;;15.60;99.90;;;;;;5034019;28;20041;-73
2024/03/01 04:03:40;;;;;;;1.85;1.35;;;15.60;99.90;;;;;;5033467;28;20266;-73
2024/03/01 04:06:07;;;;;;;5.40;1.33;;;15.60;99.90;;;;;;5033724;28;20627;-73
2024/03/01 04:08:34;;;;;;;;;;;15.60;99.90;;;;;;5033674;28;20049;-72
2024/03/01 04:11:05;;;;;;;1.48;1.20;;;15.60;99.90;;;;;;5033484;28;19909;-73
2024/03/01 04:13:32;;;;;;;1.45;1.10;;;15.60;99.90;;;;;;5031984;28;20048;-74
2024/03/01 04:15:58;;;;;;;1.50;1.30;;;15.60;99.90;;;;;;5031421;28;20035;-74
2024/03/01 04:18:27;;;;;;;2.17;1.27;;;15.50;99.90;;;;;;5033168;28;20041;-72
2024/03/01 04:20:57;;;;;;;1.45;1.08;;;15.60;99.90;;;;;;5032819;28;20026;-74
2024/03/01 04:23:24;;;;;;;2.65;1.00;;;15.60;99.90;;;;;;5032792;28;20022;-74
2024/03/01 04:25:51;;;;;;;1.70;1.30;;;15.60;99.90;;;;;;5032492;28;20037;-74
2024/03/01 04:28:26;;;;;;;1.10;0.95;;;15.50;99.90;;;;;;5031826;28;20041;-73
2024/03/01 04:30:53;;;;;;;1.45;1.05;;;15.50;99.90;;;;;;5033448;28;20104;-73
2024/03/01 04:33:19;;;;;;;2.15;0.95;;;15.50;99.90;;;;;;5031692;28;20045;-72
2024/03/01 04:35:44;;;;;;;1.80;1.30;;;15.50;99.90;;;;;;5031136;28;20479;-74
2024/03/01 04:38:10;;;;;;;1.40;0.93;;;15.50;99.90;;;;;;5031566;28;20036;-73
2024/03/01 04:40:43;;;;;;;2.57;1.07;;;15.40;99.90;;;;;;5032496;28;20025;-73
2024/03/01 04:43:08;;;;;;;1.58;1.13;;;15.50;99.90;;;;;;5033144;28;20025;-74
2024/03/01 04:45:34;;;;;;;2.13;1.33;;;15.50;99.90;;;;;;5032466;28;20063;-73
2024/03/01 04:48:00;;;;;;;1.27;0.80;;;15.50;99.90;;;;;;5031619;28;20033;-73
2024/03/01 04:50:26;;;;;;;1.30;1.10;;;15.50;99.90;;;;;;5032813;28;20348;-73
2024/03/01 04:52:52;;;;;;;1.58;0.95;;;15.40;99.90;;;;;;5031093;28;20076;-72
2024/03/01 04:55:18;;;;;;;1.10;0.80;;;15.40;99.90;;;;;;5031280;28;20038;-73
2024/03/01 04:57:44;;;;;;;2.70;0.95;;;15.40;99.90;;;;;;5032113;28;20075;-73
2024/03/01 05:00:13;;;;;;;0.83;0.60;;;15.40;99.90;;;;;;5031036;28;20091;-73
2024/03/01 05:02:43;;;;;;;0.93;0.73;;;15.40;99.90;;;;;;5030971;28;20064;-73
2024/03/01 05:05:14;;;;;;;1.02;0.80;;;15.40;99.90;;;;;;5032118;28;20033;-74
2024/03/01 05:07:40;;;;;;;2.58;0.80;;;15.30;99.90;;;;;;5031827;28;20030;-74
2024/03/01 05:10:09;;;;;;;2.55;1.20;;;15.40;99.90;;;;;;5031316;28;20026;-74
2024/03/01 05:12:40;;;;;;;1.00;0.70;;;15.30;99.90;;;;;;5030247;28;20029;-74
2024/03/01 05:15:07;;;;;;;0.77;0.77;;;15.30;99.90;;;;;;5029685;28;20026;-73
2024/03/01 05:17:39;;;;;;;1.20;0.88;;;15.30;99.90;;;;;;5032025;28;20037;-73
2024/03/01 05:20:10;;;;;;;1.08;0.80;;;15.30;99.90;;;;;;5030330;28;20033;-73
2024/03/01 05:22:37;;;;;;;2.17;0.88;;;15.30;99.90;;;;;;5031591;28;20071;-73
2024/03/01 05:25:16;;;;;;;1.30;0.77;;;15.30;99.90;;;;;;5032109;28;20108;-73
2024/03/01 05:27:49;;;;;;;1.15;0.80;;;15.30;99.90;;;;;;5032086;28;20056;-74
2024/03/01 05:30:22;;;;;;;0.88;0.60;;;15.30;99.90;;;;;;5031831;28;20486;-74
2024/03/01 05:32:48;;;;;;;1.00;0.65;;;15.30;99.90;;;;;;5031870;28;20032;-72
2024/03/01 05:35:15;;;;;;;;;;;15.30;99.90;;;;;;5032184;28;20038;-73
2024/03/01 05:37:41;;;;;;;0.85;0.82;;;15.30;99.90;;;;;;5030238;28;20373;-73
2024/03/01 05:40:10;;;;;;;1.33;0.70;;;15.20;99.90;;;;;;5031743;28;20041;-74
2024/03/01 05:42:39;;;;;;;1.13;0.70;;;15.20;99.90;;;;;;5031584;28;20021;-73
2024/03/01 05:45:07;;;;;;;0.63;0.63;;;15.20;99.90;;;;;;5031673;28;20044;-73
2024/03/01 05:47:45;;;;;;;1.38;0.70;;;15.20;99.90;;;;;;5030148;28;20482;-73
2024/03/01 05:50:12;;;;;;;1.92;0.60;;;15.20;99.90;;;;;;5030006;28;20075;-73
2024/03/01 05:52:39;;;;;;;;;;;15.20;99.90;;;;;;5031391;28;20053;-74
2024/03/01 05:55:04;;;;;;;;;;;15.20;99.90;;;;;;5030608;28;19917;-74
2024/03/01 05:57:36;;;;;;;1.08;0.57;;;15.20;99.90;;;;;;5030023;28;19913;-74
2024/03/01 06:00:25;;;;;;;1.25;0.80;;;15.20;99.90;;;;;;5031334;28;20029;-73
2024/03/01 06:02:51;;;;;;;2.70;0.73;;;15.10;99.90;;;;;;5031454;28;20026;-73
2024/03/01 06:05:17;;;;;;;1.30;0.60;;;15.10;99.90;;;;;;5031432;28;20037;-74
2024/03/01 06:07:44;;;;;;;2.60;0.80;;;15.10;99.90;;;;;;5030837;28;20033;-73
2024/03/01 06:10:12;;;;;;;2.22;0.50;;;15.10;99.90;;;;;;5031591;28;20029;-73
2024/03/01 06:12:37;;;;;;;1.55;0.57;;;15.10;99.90;;;;;;5031583;28;20032;-73
2024/03/01 06:15:04;;;;;;;1.63;0.80;;;15.10;99.90;;;;;;5031422;28;20030;-74
2024/03/01 06:17:31;;;;;;;1.13;0.70;;;15.10;99.90;;;;;;5029594;28;20457;-73
2024/03/01 06:19:57;;;;;;;0.40;0.40;;;15.10;99.90;;;;;;5030611;28;20034;-73
2024/03/01 06:22:22;;;;;;;3.03;0.60;;;15.10;99.90;;;;;;5030814;28;20064;-73
2024/03/01 06:24:48;;;;;;;0.50;0.40;;;15.10;99.90;;;;;;5031114;28;20033;-74
2024/03/01 06:27:14;;;;;;;3.47;0.60;;;15.10;99.90;;;;;;5029180;28;20037;-73
2024/03/01 06:29:40;;;;;;;1.37;0.60;;;15.10;99.90;;;;;;5030992;28;20116;-74
2024/03/01 06:32:06;;;;;;;3.10;0.70;;;15.10;99.90;;;;;;5029430;28;20025;-72
2024/03/01 06:34:32;;;;;;;1.83;0.68;;;15.00;99.90;;;;;;5030841;28;20025;-72
2024/03/01 06:36:57;;;;;;;1.87;0.47;;;15.00;99.90;;;;;;5030570;28;20091;-73
2024/03/01 06:39:23;;;;;;;1.57;0.60;;;15.00;99.90;;;;;;5028782;28;20094;-72
2024/03/01 06:41:49;;;;;;;1.00;0.67;;;15.00;99.90;;;;;;5030434;28;20450;-73
2024/03/01 06:44:20;;;;;;;1.17;0.60;;;15.00;99.90;;;;;;5029298;28;20036;-72
2024/03/01 06:46:46;;;;;;;1.10;0.65;;;15.00;99.90;;;;;;5030376;28;20074;-74
2024/03/01 06:49:11;;;;;;;0.40;0.40;;;15.00;99.90;;;;;;5030039;28;20071;-74
2024/03/01 06:51:38;;;;;;;0.88;0.47;;;15.00;99.90;;;;;;5028521;28;20156;-73
2024/03/01 06:54:04;;;;;;;1.03;0.60;;;15.00;99.90;;;;;;5029117;28;20129;-73
2024/03/01 06:56:29;;;;;;;1.00;0.73;;;15.00;99.90;;;;;;5028929;28;20087;-74
2024/03/01 06:58:55;;;;;;;0.93;0.40;;;15.00;99.90;;;;;;5028954;28;20576;-72
2024/03/01 07:01:21;;;;;;;2.47;0.60;;;15.00;99.90;;;;;;5029981;28;20021;-73
2024/03/01 07:03:46;;;;;;;1.13;0.60;;;15.00;99.90;;;;;;5029023;28;20738;-72
2024/03/01 07:06:12;;;;;;;0.60;0.57;;;15.00;99.90;;;;;;5027504;28;20032;-73
2024/03/01 07:08:39;;;;;;;0.43;0.30;;;15.00;99.90;;;;;;5028925;28;20034;-73
2024/03/01 07:11:05;;;;;;;;;;;15.00;99.90;;;;;;5030221;28;20036;-73
2024/03/01 07:13:30;;;;;;;3.58;1.02;;;15.00;99.90;;;;;;5030132;28;20344;-73
2024/03/01 07:15:56;;;;;;;1.97;0.50;;;15.10;99.90;;;;;;5027807;28;20040;-73
2024/03/01 07:18:22;;;;;;;1.30;0.80;;;15.10;99.90;;;;;;5028956;28;20029;-73
2024/03/01 07:20:47;;;;;;;2.00;0.63;;;15.20;99.90;;;;;;5030156;28;20030;-75
2024/03/01 07:23:14;;;;;;;0.40;0.40;;;15.20;99.90;;;;;;5028861;28;20036;-72
2024/03/01 07:25:40;;;;;;;1.17;0.80;;;15.30;99.90;;;;;;5027516;28;20439;-72
2024/03/01 07:28:05;;;;;;;1.10;0.70;;;15.30;99.90;;;;;;5029815;28;20112;-73
2024/03/01 07:30:31;;;;;;;1.17;0.47;;;15.30;99.90;;;;;;5029774;28;20025;-74
2024/03/01 07:32:57;;;;;;;0.87;0.73;;;15.60;99.90;;;;;;5028868;28;20472;-74
2024/03/01 07:35:22;;;;;;;1.03;0.60;;;16.00;99.90;;;;;;5056643;28;20033;-73
2024/03/01 07:37:48;;;;;;;1.37;0.60;;;16.40;99.90;;;;;;5030021;28;20088;-73
2024/03/01 07:40:14;;;;;;;0.77;0.60;;;16.70;99.90;;;;;;5029993;28;20661;-73
2024/03/01 07:42:40;;;;;;;1.53;0.73;;;16.90;99.90;;;;;;5028839;28;20033;-73
2024/03/01 07:45:06;;;;;;;1.13;0.50;;;17.10;99.90;;;;;;5029743;28;20034;-74
2024/03/01 07:47:33;;;;;;;1.38;0.65;;;17.20;99.90;;;;;;5028273;28;20025;-74
2024/03/01 07:49:59;;;;;;;1.55;0.60;;;17.10;99.90;;;;;;5028398;28;20037;-73
2024/03/01 07:52:31;;;;;;;2.53;0.80;;;17.10;99.90;;;;;;5029158;28;20063;-73
2024/03/01 07:54:56;;;;;;;0.57;0.57;;;17.20;99.90;;;;;;5027406;28;20124;-74
2024/03/01 07:57:22;;;;;;;1.20;0.40;;;17.20;99.90;;;;;;5029834;28;20553;-73
2024/03/01 07:59:50;;;;;;;1.30;0.50;;;17.10;99.90;;;;;;5061381;28;20025;-72
2024/03/01 08:02:16;;;;;;;1.80;0.60;;;17.30;99.90;;;;;;5057842;28;20140;-73
2024/03/01 08:04:43;;;;;;;0.40;0.40;;;17.50;99.90;;;;;;5028948;28;20625;-73
2024/03/01 08:07:13;;;;;;;7.65;0.73;;;17.80;99.90;;;;;;5028994;28;20021;-74
2024/03/01 08:09:42;;;;;;;0.70;0.50;;;18.00;99.90;;;;;;5029060;28;20052;-73
2024/03/01 08:12:13;;;;;;;1.73;0.60;;;18.10;99.90;;;;;;5029563;28;20025;-74
2024/03/01 08:14:40;;;;;;;2.45;1.40;;;18.20;99.90;;;;;;5027974;28;20030;-74
2024/03/01 08:17:07;;;;;;;1.95;0.57;;;18.20;99.90;;;;;;5028783;28;20034;-72
2024/03/01 08:19:37;;;;;;;1.23;0.50;;;18.40;99.90;;;;;;5028120;28;20087;-73
2024/03/01 08:22:12;;;;;;;6.38;1.35;;;19.40;99.90;;;;;;5028056;28;20546;-73
2024/03/01 08:24:45;;;;;;;1.25;0.60;;;20.30;99.90;;;;;;5028354;28;20034;-72
2024/03/01 08:27:13;;;;;;;1.30;0.70;;;20.40;99.90;;;;;;5027471;28;20084;-73
2024/03/01 08:29:40;;;;;;;2.65;0.60;;;20.90;99.90;;;;;;5029053;28;20825;-73
2024/03/01 08:32:26;;;;;;;1.38;0.70;;;21.10;99.90;;;;;;5032955;28;20370;-73
2024/03/01 08:34:57;;;;;;;3.78;0.50;;;20.90;99.90;;;;;;5033044;28;20029;-73
2024/03/01 08:37:33;;;;;;;2.35;0.82;;;20.80;99.90;;;;;;5031215;28;20055;-72
2024/03/01 08:40:00;;;;;;;0.55;0.40;;;20.70;99.90;;;;;;5032295;28;20033;-73
2024/03/01 08:42:33;;;;;;;2.45;1.13;;;20.40;99.90;;;;;;5031235;28;20434;-74
2024/03/01 08:44:59;;;;;;;4.22;0.60;;;20.00;99.90;;;;;;5032585;28;20394;-72
2024/03/01 08:47:26;;;;;;;;;;;19.90;99.90;;;;;;5032667;28;20458;-74
2024/03/01 08:49:52;;;;;;;2.05;0.80;;;20.10;99.90;;;;;;5032008;28;20293;-74
2024/03/01 08:52:27;;;;;;;1.07;0.50;;;20.50;99.90;;;;;;5030653;28;20060;-73
2024/03/01 08:54:56;;;;;;;1.27;0.57;;;20.40;99.90;;;;;;5030434;28;20032;-74
2024/03/01 08:57:29;;;;;;;2.75;0.77;;;20.50;99.90;;;;;;5032315;28;20025;-73
2024/03/01 08:59:55;;;;;;;0.82;0.70;;;20.80;99.90;;;;;;5030892;28;20430;-74
2024/03/01 09:02:26;;;;;;;1.93;0.70;;;21.30;99.90;;;;;;5032479;28;20022;-73
2024/03/01 09:04:53;;;;;;;2.30;0.80;;;20.90;99.90;;;;;;5031967;28;20282;-74
2024/03/01 09:07:26;;;;;;;2.13;0.80;;;19.90;99.90;;;;;;5032466;28;20363;-73
2024/03/01 09:09:52;;;;;;;1.20;0.70;;;19.40;99.90;;;;;;5031653;28;20033;-73
2024/03/01 09:12:25;;;;;;;2.47;0.90;;;19.10;99.90;;;;;;5032324;28;20068;-73
2024/03/01 09:15:03;;;;;;;2.15;0.80;;;19.30;99.90;;;;;;5032251;28;20494;-73
2024/03/01 09:17:31;;;;;;;4.40;0.93;;;19.70;99.90;;;;;;5032021;28;20506;-74
2024/03/01 09:19:58;;;;;;;1.83;0.80;;;19.50;99.90;;;;;;5031853;28;20079;-73
2024/03/01 09:22:25;;;;;;;4.13;0.82;;;20.00;99.90;;;;;;5032260;28;20080;-74
2024/03/01 09:24:50;;;;;;;1.92;0.90;;;20.90;99.90;;;;;;5031973;28;20064;-73
2024/03/01 09:27:16;;;;;;;3.50;0.93;;;21.50;99.90;;;;;;5061416;28;20443;-73
2024/03/01 09:29:46;;;;;;;2.47;0.93;;;21.90;99.60;;;;;;5030769;28;20045;-75
2024/03/01 09:32:14;;;;;;;1.85;0.90;;;21.20;99.90;;;;;;5030609;28;20030;-73
2024/03/01 09:34:40;;;;;;;3.28;0.82;;;20.90;99.90;;;;;;5032074;28;20048;-75
2024/03/01 09:37:13;;;;;;;1.17;0.75;;;20.70;99.90;;;;;;5032066;28;20029;-73
2024/03/01 09:39:40;;;;;;;0.95;0.60;;;20.30;99.90;;;;;;5031777;28;20439;-74
2024/03/01 09:42:28;;;;;;;2.05;0.75;;;19.90;99.90;;;;;;5030982;28;20474;-73
2024/03/01 09:45:09;;;;;;;1.92;1.00;;;19.80;99.90;;;;;;5023451;28;20041;-73
2024/03/01 09:47:54;;;;;;;4.32;1.58;;;19.60;99.90;;;;;;5031639;28;20025;-73
2024/03/01 09:50:39;;;;;;;1.65;0.93;;;19.30;99.90;;;;;;5063386;28;20475;-75
2024/03/01 09:53:49;;;;;;;2.55;1.15;;;19.70;99.90;;;;;;5031283;28;20073;-73
2024/03/01 09:56:30;;;;;;;4.28;1.10;;;20.20;99.90;;;;;;5026324;28;20049;-72
2024/03/01 09:59:23;;;;;;;1.60;1.00;;;20.40;99.90;;;;;;5031410;28;20022;-72
2024/03/01 10:01:59;;;;;;;1.73;0.90;;;20.00;99.90;;;;;;5030444;28;20034;-73
2024/03/01 10:05:22;;;;;;;1.25;1.00;;;19.70;99.90;;;;;;5023603;28;20044;-73
2024/03/01 10:07:56;;;;;;;2.45;1.10;;;19.40;99.90;;;;;;5028242;28;20048;-72
2024/03/01 10:10:30;;;;;;;1.38;0.80;;;19.50;99.90;;;;;;5027328;28;20060;-72
2024/03/01 10:13:06;;;;;;;6.82;1.13;;;19.70;99.90;;;;;;5024298;28;20038;-73
2024/03/01 10:16:00;;;;;;;1.83;1.00;;;19.70;99.90;;;;;;5011004;28;20036;-72
2024/03/01 10:18:40;;;;;;;2.47;1.58;;;19.40;99.90;;;;;;5004642;28;20498;-72
2024/03/01 10:21:49;;;;;;;1.85;1.23;;;18.90;99.90;;;;;;5012116;28;20032;-71
2024/03/01 10:24:42;;;;;;;1.75;0.90;;;18.80;99.90;;;;;;5025666;28;20542;-73
2024/03/01 10:27:10;;;;;;;2.17;1.48;;;18.50;99.90;;;;;;5024449;28;20022;-72
2024/03/01 10:29:57;;;;;;;5.10;1.65;;;18.50;99.90;;;;;;5023476;28;20446;-74
2024/03/01 10:32:34;;;;;;;;;;;18.60;99.90;;;;;;5021521;28;20068;-71
2024/03/01 10:35:21;;;;;;;4.38;1.30;;;20.00;99.90;;;;;;5023598;28;19919;-73
2024/03/01 10:38:11;;;;;;;3.80;1.50;;;19.70;99.90;;;;;;5008769;28;20095;-72
2024/03/01 10:40:53;;;;;;;3.53;1.23;;;19.40;99.90;;;;;;5030854;28;20414;-73
2024/03/01 10:43:48;;;;;;;11.02;1.60;;;19.30;99.90;;;;;;5029176;28;20018;-75
2024/03/01 10:46:23;;;;;;;3.67;1.40;;;19.20;99.90;;;;;;5027416;28;20045;-73
2024/03/01 10:49:16;;;;;;;6.50;2.28;;;19.10;99.90;;;;;;5029639;28;20490;-71
2024/03/01 10:52:10;;;;;;;20.27;11.27;;;19.20;99.90;;;;;;5018701;28;20071;-72
2024/03/01 10:54:37;;;;;;;15.98;7.05;;;19.10;99.90;;;;;;5030108;28;20057;-71
2024/03/01 10:57:10;;;;;;;14.77;7.03;;;19.30;99.90;;;;;;5030516;28;20040;-74
2024/03/01 10:59:38;;;;;;;13.82;6.55;;;19.50;99.90;;;;;;5028445;28;20051;-73
2024/03/01 11:02:26;;;;;;;16.85;7.50;;;20.30;99.90;;;;;;5030123;28;20029;-71
2024/03/01 11:04:58;;;;;;;12.57;6.15;;;20.40;99.90;;;;;;5029649;28;20041;-71
2024/03/01 11:07:30;;;;;;;11.02;5.70;;;21.50;99.90;;;;;;5030490;28;20034;-71
2024/03/01 11:10:02;;;;;;;8.75;5.32;;;22.10;99.80;;;;;;5029635;28;20371;-72
2024/03/01 11:12:48;;;;;;;7.88;4.57;;;23.10;98.90;;;;;;5030131;28;20565;-74
2024/03/01 11:15:15;;;;;;;7.18;5.40;;;23.60;98.30;;;;;;5030470;28;20048;-75
2024/03/01 11:17:45;;;;;;;11.27;5.03;;;24.20;97.40;;;;;;5030188;28;20033;-72
2024/03/01 11:20:21;;;;;;;7.10;4.75;;;23.90;97.20;;;;;;5029600;28;20026;-71
2024/03/01 11:23:04;;;;;;;8.07;4.75;;;23.60;97.70;;;;;;5028893;28;20056;-72
2024/03/01 11:25:55;;;;;;;14.75;6.57;;;23.90;97.20;;;;;;5030208;28;20029;-73
2024/03/01 11:28:24;;;;;;;10.32;6.47;;;23.70;97.30;;;;;;5062001;28;20025;-72
2024/03/01 11:31:00;;;;;;;21.52;13.25;;;23.50;97.20;;;;;;5028020;28;20131;-72
2024/03/01 11:33:33;;;;;;;26.58;9.65;;;23.30;97.40;;;;;;5028517;28;20071;-74
2024/03/01 11:36:37;;;;;;;17.63;9.10;;;23.50;97.30;;;;;;5030090;28;20786;-71
2024/03/01 11:39:34;;;;;;;15.88;8.27;;;22.60;98.00;;;;;;5020305;28;20542;-72
2024/03/01 11:42:06;;;;;;;11.43;7.15;;;21.60;99.30;;;;;;5024166;28;20116;-72
2024/03/01 11:45:00;;;;;;;11.65;6.72;;;21.40;99.60;;;;;;5029607;28;20064;-74
2024/03/01 11:48:08;;;;;;;12.18;6.30;;;21.20;99.50;;;;;;5025245;28;20021;-73
2024/03/01 11:51:00;;;;;;;10.55;6.38;;;21.10;99.50;;;;;;5017897;28;20121;-73
2024/03/01 11:53:58;;;;;;;10.40;5.68;;;21.00;99.80;;;;;;5009510;28;20042;-72
2024/03/01 11:56:49;;;;;;;14.02;5.00;;;21.50;99.60;;;;;;5029356;28;20370;-73
2024/03/01 11:59:48;;;;;;;9.55;4.72;;;21.00;99.90;;;;;;5029838;28;20030;-73
2024/03/01 12:02:31;;;;;;;7.97;4.80;;;20.50;99.90;;;;;;5027264;28;20034;-73
2024/03/01 12:05:16;;;;;;;11.88;4.82;;;20.10;99.90;;;;;;5032246;28;20040;-72
2024/03/01 12:08:01;;;;;;;8.17;4.80;;;19.90;99.90;;;;;;5065036;28;20025;-71
2024/03/01 12:10:27;;;;;;;8.70;4.75;;;19.80;99.90;;;;;;5032741;28;20728;-74
2024/03/01 12:13:05;;;;;;;12.67;3.70;;;19.70;99.90;;;;;;5026717;28;20041;-74
2024/03/01 12:15:40;;;;;;;8.88;4.30;;;19.60;99.90;;;;;;5063947;28;20075;-73
2024/03/01 12:18:17;;;;;;;6.75;4.13;;;19.50;99.90;;;;;;5029312;28;20030;-74
2024/03/01 12:21:00;;;;;;;13.43;7.50;;;19.40;99.90;;;;;;5032746;28;20029;-72
2024/03/01 12:23:36;;;;;;;13.18;6.38;;;19.30;99.90;;;;;;5054007;28;20061;-73
2024/03/01 12:26:04;;;;;;;19.80;5.43;;;19.20;99.90;;;;;;5029906;28;20034;-72
2024/03/01 12:28:45;;;;;;;9.48;4.75;;;19.10;99.90;;;;;;5030731;28;20371;-72
2024/03/01 12:31:17;;;;;;;9.32;4.07;;;19.00;99.90;;;;;;5032011;28;20022;-73
2024/03/01 12:34:09;;;;;;;12.00;4.28;;;18.90;99.90;;;;;;5031857;28;20029;-72
2024/03/01 12:36:46;;;;;;;8.13;4.15;;;18.80;99.90;;;;;;5030479;28;20049;-73
2024/03/01 12:39:14;;;;;;;6.85;3.95;;;18.70;99.90;;;;;;5032495;28;20040;-73
2024/03/01 12:42:05;;;;;;;8.25;4.32;;;18.70;99.90;;;;;;5023117;28;20064;-73
2024/03/01 12:45:02;;;;;;;8.18;3.78;;;18.80;99.90;;;;;;5034371;28;20390;-74
2024/03/01 12:47:55;;;;;;;11.52;3.53;;;19.00;99.90;;;;;;5033090;28;20344;-74
2024/03/01 12:50:30;;;;;;;7.07;3.60;;;19.10;99.90;;;;;;5033219;28;20026;-75
2024/03/01 12:53:28;;;;;;;7.45;3.25;;;19.10;99.90;;;;;;5032222;28;20128;-74
2024/03/01 12:56:20;;;;;;;8.27;3.35;;;19.10;99.90;;;;;;5033184;28;20149;-73
2024/03/01 12:59:02;;;;;;;7.53;3.40;;;18.90;99.90;;;;;;5033494;28;20466;-72
2024/03/01 13:02:02;;;;;;;8.45;2.75;;;18.80;99.90;;;;;;5032796;28;20026;-74
2024/03/01 13:04:50;;;;;;;5.40;3.00;;;18.60;99.90;;;;;;5033025;28;20482;-76
2024/03/01 13:07:17;;;;;;;7.57;2.63;;;18.40;99.90;;;;;;5030700;28;20025;-74
2024/03/01 13:09:46;;;;;;;9.57;3.45;;;18.30;99.90;;;;;;5032841;28;20022;-75